Kezdőlap
METAR-TAF:

METAR-TAF

Repülőterek :

Yap, Mikronézia

földrajzi szélesség: 09-29N, földrajzi hosszúság: 138-05E, magasság: 28 m

Jelenlegi meteorológiai megfigyelések

A jelentés 20 perccel ezelõtt készült, 04:50 UTC
Kelet-északkeleti szél 10 kt
Hőmérséklet 31°C
Páratartalom 66%
Légköri nyomás 1008 hPa
Látótávolság: 19.3 km
Szórványos felhőzet 1700 lábon
Szakadozott felhőzet 30000 lábon

METAR: PTYA 100450Z 06010KT 12SM SCT017 BKN300 31/24 A2976 RMK SLP079 T03050244

Idő: 15:10 (05:10 UTC)

Előrejelzés

A jelentés 5 órával és 40 perccel ezelõtt készült, 23:30 UTC
Az előrejelzés 10-én 00 óra UTC és 10-én 24 óra UTC között érvényes
Kelet-északkeleti szél 11 kt
Látótávolság: 10 km
Kevés felhő 1800 lábon
Szórványos felhőzet 5000 lábon
Záporok a közelben

TAF: PTYA 092330Z 1000/1024 07011KT P6SM VCSH FEW018 SCT050

Meteorológiai megfigyelések és előrejelzések több, mint 4000 repülőtéren (METAR és TAF jelentéseket).

A térképen piros és sárga pontok jelzik az elérhető meteorológiai állomásokat.

Mozgassa az egeret a pont fölött, hogy megjelenjen az állomás neve.

Azután kattintson az időjárási megfigyelések és előrejelzések megtekintéséhez.

A térkép megváltoztatása: kattintson a fekete keresztel jelölt zöld gombra ráközelítéshez, a vonallal jelölt zöld gombra távolításhoz, vagy a zöld nyilakra a szomszédos térképek eléréséhez.


METAR-TAF: